Weather at Yeovil/Westland Aerodrome

Public forecast

Using degrees Celsius for public forecast. Weather courtesy of forecast.io.

Closest aviation weather report (METAR) to Yeovil/Westland Aerodrome

Closest report is RNAS Yeovilton, 4.2 nm (7.8 km) N. Retrieved 2021/09/23 15:20 UTC (4 minutes ago):

EGDY 231520Z 30009KT 9999 FEW010 SCT020 19/15 Q1020 NOSIG RMK WHT WHT

Closest aviation forecast (TAF) to Yeovil/Westland Aerodrome

Forecast is more than 12 hours old.

Closest forecast is RNAS Yeovilton, 4.2 nm (7.8 km) N. Retrieved 2020/10/05 06:30 UTC (12 months ago):

TAF TAF EGDY 051025Z 0506/0518 CNL